Wilson Gaeta — 8PTS — position and weather

sailwx.info

Track history (hours):
 
Tides and Currents Weather Stations Pressure Air Temp Water Temp Dewpoint Dewpoint Depression Visibility Wind Speed Wind Dir Waves Ship Positions

Wilson Gaeta

Last reported at 2015-Aug-02 18:12 UTC. Time now 2015-Aug-03 19:12 UTC.
Position N 63°05' E 007°41'.

Length 88 m; draft 5.7 m.

Type: Cargo ship. MMSI: 314237000.

Date/timePositionNaut miles runAvg speedWind from/ knotsBaromVisibWave heightAir tempDewpointWater temp
2015-Aug-02 18:12N 63°05' E 007°41'  
2015-Jul-26 05:26N 59°15' E 004°43'6 5.7
2015-Jul-26 04:27N 59°10' E 004°47'6 6.7
2015-Jul-26 03:33N 59°05' E 004°53'7 7.2
2015-Jul-26 02:33N 58°59' E 005°00'7 7.2
2015-Jul-26 01:33N 58°53' E 005°08'39 7.8
2015-Jul-25 20:33N 58°21' E 005°51'9 9.0
2015-Jul-25 19:33N 58°14' E 006°03'9 8.9
2015-Jul-25 18:33N 58°08' E 006°15'9 9.1
2015-Jul-25 17:33N 58°01' E 006°27'101 8.9
2015-Jul-25 06:07N 57°50' E 009°37'5 8.4
2015-Jul-25 05:33N 57°50' E 009°46'8 8.3
2015-Jul-25 04:33N 57°50' E 010°02'9 8.0
2015-Jul-25 03:27N 57°49' E 010°18'7 8.2
2015-Jul-25 02:32N 57°49' E 010°32'7 7.5
2015-Jul-25 01:33N 57°48' E 010°46'9 8.6
2015-Jul-25 00:33N 57°42' E 010°58'9 8.7
2015-Jul-24 23:33N 57°36' E 011°10'9 8.6
2015-Jul-24 22:33N 57°30' E 011°22'8 8.4
2015-Jul-24 21:33N 57°23' E 011°30'45 9.1
2015-Jul-24 16:33N 56°42' E 012°04'8 8.2
2015-Jul-24 15:33N 56°34' E 012°11'8 8.1
2015-Jul-24 14:31N 56°27' E 012°17'8 8.5
2015-Jul-24 13:34N 56°19' E 012°22'9 8.8
2015-Jul-24 12:34N 56°11' E 012°29'8 8.2
2015-Jul-24 11:33N 56°05' E 012°37'8 8.3
2015-Jul-24 10:33N 55°57' E 012°43'8 8.4
2015-Jul-24 09:33N 55°49' E 012°43'8 8.5
2015-Jul-24 08:33N 55°40' E 012°41'8 7.8
2015-Jul-24 07:33N 55°32' E 012°43'9 8.9
2015-Jul-24 06:33N 55°23' E 012°42'7 7.1
2015-Jul-24 05:33N 55°17' E 012°48'9 8.5
2015-Jul-24 04:32N 55°16' E 013°03'28 8.7
2015-Jul-24 01:20N 55°14' E 013°51'7 8.6
2015-Jul-24 00:33N 55°14' E 014°03'8 8.3
2015-Jul-23 23:33N 55°14' E 014°17'9 8.6
2015-Jul-23 22:33N 55°21' E 014°27'9 8.6
2015-Jul-23 21:33N 55°27' E 014°37'9 8.9
2015-Jul-23 20:33N 55°31' E 014°51'9 8.7
2015-Jul-23 19:33N 55°36' E 015°04'8 8.5
2015-Jul-23 18:33N 55°40' E 015°17'  
Track history (hours):
 
Tides and Currents Weather Stations Pressure Air Temp Water Temp Dewpoint Dewpoint Depression Visibility Wind Speed Wind Dir Waves Ship Positions

Wilson Gaeta

Last reported at 2015-Aug-02 18:12 UTC. Time now 2015-Aug-03 19:12 UTC.
Position N 63°05' E 007°41'.

Length 88 m; draft 5.7 m.

Type: Cargo ship. MMSI: 314237000.

Date/timePositionNaut miles runAvg speedWind from/ knotsBaromVisibWave heightAir tempDewpointWater temp
2015-Aug-02 18:12N 63°05' E 007°41'  
2015-Jul-26 05:26N 59°15' E 004°43'6 5.7
2015-Jul-26 04:27N 59°10' E 004°47'6 6.7
2015-Jul-26 03:33N 59°05' E 004°53'7 7.2
2015-Jul-26 02:33N 58°59' E 005°00'7 7.2
2015-Jul-26 01:33N 58°53' E 005°08'39 7.8
2015-Jul-25 20:33N 58°21' E 005°51'9 9.0
2015-Jul-25 19:33N 58°14' E 006°03'9 8.9
2015-Jul-25 18:33N 58°08' E 006°15'9 9.1
2015-Jul-25 17:33N 58°01' E 006°27'101 8.9
2015-Jul-25 06:07N 57°50' E 009°37'5 8.4
2015-Jul-25 05:33N 57°50' E 009°46'8 8.3
2015-Jul-25 04:33N 57°50' E 010°02'9 8.0
2015-Jul-25 03:27N 57°49' E 010°18'7 8.2
2015-Jul-25 02:32N 57°49' E 010°32'7 7.5
2015-Jul-25 01:33N 57°48' E 010°46'9 8.6
2015-Jul-25 00:33N 57°42' E 010°58'9 8.7
2015-Jul-24 23:33N 57°36' E 011°10'9 8.6
2015-Jul-24 22:33N 57°30' E 011°22'8 8.4
2015-Jul-24 21:33N 57°23' E 011°30'45 9.1
2015-Jul-24 16:33N 56°42' E 012°04'8 8.2
2015-Jul-24 15:33N 56°34' E 012°11'8 8.1
2015-Jul-24 14:31N 56°27' E 012°17'8 8.5
2015-Jul-24 13:34N 56°19' E 012°22'9 8.8
2015-Jul-24 12:34N 56°11' E 012°29'8 8.2
2015-Jul-24 11:33N 56°05' E 012°37'8 8.3
2015-Jul-24 10:33N 55°57' E 012°43'8 8.4
2015-Jul-24 09:33N 55°49' E 012°43'8 8.5
2015-Jul-24 08:33N 55°40' E 012°41'8 7.8
2015-Jul-24 07:33N 55°32' E 012°43'9 8.9
2015-Jul-24 06:33N 55°23' E 012°42'7 7.1
2015-Jul-24 05:33N 55°17' E 012°48'9 8.5
2015-Jul-24 04:32N 55°16' E 013°03'28 8.7
2015-Jul-24 01:20N 55°14' E 013°51'7 8.6
2015-Jul-24 00:33N 55°14' E 014°03'8 8.3
2015-Jul-23 23:33N 55°14' E 014°17'9 8.6
2015-Jul-23 22:33N 55°21' E 014°27'9 8.6
2015-Jul-23 21:33N 55°27' E 014°37'9 8.9
2015-Jul-23 20:33N 55°31' E 014°51'9 8.7
2015-Jul-23 19:33N 55°36' E 015°04'8 8.5
2015-Jul-23 18:33N 55°40' E 015°17'  

Dump ship's entire track history